createdAt,value
2018-12-23T00:03:57.817Z,4.47
2018-12-23T00:09:00.958Z,4.57
2018-12-23T00:14:04.074Z,4.80
2018-12-23T00:19:07.131Z,4.90
2018-12-23T00:24:11.067Z,4.40
2018-12-23T00:29:14.192Z,4.40
2018-12-23T00:34:17.261Z,4.60
2018-12-23T00:39:20.421Z,4.87
2018-12-23T00:44:23.472Z,4.40
2018-12-23T00:49:27.357Z,4.57
2018-12-23T00:54:30.410Z,4.93
2018-12-23T00:59:33.471Z,5.30
2018-12-23T01:04:36.554Z,4.70
2018-12-23T01:09:39.619Z,5.20
2018-12-23T01:14:42.676Z,5.25
2018-12-23T01:19:45.732Z,4.90
2018-12-23T01:24:48.809Z,5.23
2018-12-23T01:29:52.054Z,5.07
2018-12-23T01:34:55.120Z,5.27
2018-12-23T01:39:58.203Z,5.03
2018-12-23T01:45:01.266Z,5.07
2018-12-23T01:50:04.893Z,4.90
2018-12-23T01:55:08.009Z,4.65
2018-12-23T02:00:11.120Z,4.43
2018-12-23T02:05:14.230Z,5.17
2018-12-23T02:10:17.321Z,5.10
2018-12-23T02:15:20.414Z,5.00
2018-12-23T02:20:23.498Z,4.50
2018-12-23T02:25:26.567Z,5.10
2018-12-23T02:30:29.937Z,4.90
2018-12-23T02:35:33.002Z,5.57
2018-12-23T02:40:36.086Z,5.10
2018-12-23T02:45:39.266Z,6.60
2018-12-23T02:50:42.394Z,5.40
2018-12-23T02:55:45.450Z,5.23
2018-12-23T03:00:48.534Z,5.00
2018-12-23T03:05:51.661Z,5.30
2018-12-23T03:10:54.739Z,5.12
2018-12-23T03:15:57.925Z,5.87
2018-12-23T03:21:01.049Z,4.93
2018-12-23T03:26:04.174Z,6.17
2018-12-23T03:31:07.238Z,5.50
2018-12-23T03:36:14.953Z,5.33
2018-12-23T03:41:15.643Z,5.43
2018-12-23T03:46:18.726Z,5.10
2018-12-23T03:51:21.826Z,5.33
2018-12-23T03:56:24.900Z,4.90
2018-12-23T04:01:27.969Z,5.13
2018-12-23T04:06:31.029Z,5.07
2018-12-23T04:11:34.101Z,4.90
2018-12-23T04:16:37.157Z,4.30
2018-12-23T04:21:40.210Z,4.87
2018-12-23T04:26:43.285Z,4.77
2018-12-23T04:31:46.361Z,3.97
2018-12-23T04:36:49.445Z,3.80
2018-12-23T04:41:52.533Z,3.90
2018-12-23T04:46:55.604Z,3.97
2018-12-23T04:51:58.690Z,4.77
2018-12-23T04:57:01.756Z,4.87
2018-12-23T05:02:04.912Z,4.10
2018-12-23T05:07:08.057Z,4.30
2018-12-23T05:12:11.118Z,4.80
2018-12-23T05:17:14.322Z,4.00
2018-12-23T05:22:17.375Z,4.10
2018-12-23T05:27:20.513Z,4.43
2018-12-23T05:32:23.632Z,3.92
2018-12-23T05:37:26.869Z,3.90
2018-12-23T05:42:29.945Z,3.83
2018-12-23T05:47:33.005Z,4.07
2018-12-23T05:52:36.141Z,4.20
2018-12-23T05:57:39.192Z,4.60
2018-12-23T06:02:42.286Z,4.03
2018-12-23T06:07:45.337Z,4.13
2018-12-23T06:12:48.468Z,4.23
2018-12-23T06:17:51.523Z,4.57
2018-12-23T06:22:54.641Z,3.70
2018-12-23T06:27:57.707Z,4.57
2018-12-23T06:33:00.765Z,4.17
2018-12-23T06:38:03.840Z,4.37
2018-12-23T06:43:06.888Z,3.90
2018-12-23T06:48:09.983Z,3.60
2018-12-23T06:53:13.020Z,3.83
2018-12-23T06:58:16.080Z,3.83
2018-12-23T07:03:19.132Z,3.80
2018-12-23T07:08:22.190Z,3.67
2018-12-23T07:13:25.241Z,3.63
2018-12-23T07:18:28.368Z,3.60
2018-12-23T07:23:31.405Z,3.63
2018-12-23T07:28:34.468Z,3.98
2018-12-23T07:33:37.599Z,3.50
2018-12-23T07:38:40.660Z,3.33
2018-12-23T07:43:43.769Z,3.57
2018-12-23T07:48:46.817Z,3.27
2018-12-23T07:53:49.863Z,3.13
2018-12-23T07:58:53.014Z,3.20
2018-12-23T08:03:56.096Z,3.13
2018-12-23T08:08:59.261Z,4.27
2018-12-23T08:19:11.917Z,3.30
2018-12-23T08:24:15.052Z,3.77
2018-12-23T08:29:18.124Z,3.43
2018-12-23T08:34:21.224Z,3.50
2018-12-23T08:39:24.386Z,3.17
2018-12-23T08:44:27.528Z,3.50
2018-12-23T08:49:30.605Z,3.30
2018-12-23T08:54:33.676Z,3.37
2018-12-23T08:59:36.803Z,3.40
2018-12-23T09:04:39.861Z,2.98
2018-12-23T09:09:42.911Z,2.87
2018-12-23T09:14:45.965Z,2.80
2018-12-23T09:19:49.021Z,2.90
2018-12-23T09:24:52.085Z,2.80
2018-12-23T09:29:55.148Z,2.53
2018-12-23T09:34:58.233Z,2.47
2018-12-23T09:40:02.253Z,2.90
2018-12-23T09:45:06.612Z,3.97
2018-12-23T09:50:09.684Z,3.50
2018-12-23T09:55:12.845Z,3.00
2018-12-23T10:00:15.916Z,2.70
2018-12-23T10:05:19.019Z,2.70
2018-12-23T10:10:28.320Z,3.27
2018-12-23T10:15:27.157Z,3.03
2018-12-23T10:20:30.231Z,2.90
2018-12-23T10:25:33.302Z,2.53
2018-12-23T10:30:36.520Z,3.03
2018-12-23T10:35:39.596Z,3.00
2018-12-23T10:40:42.672Z,3.03
2018-12-23T10:45:45.801Z,3.67
2018-12-23T10:50:48.951Z,3.17
2018-12-23T10:55:52.159Z,3.27
2018-12-23T11:00:55.239Z,2.97
2018-12-23T11:05:58.384Z,3.47
2018-12-23T11:11:01.489Z,3.13
2018-12-23T11:16:04.594Z,3.50
2018-12-23T11:21:07.699Z,3.45
2018-12-23T11:26:10.808Z,3.98
2018-12-23T11:31:13.956Z,3.75
2018-12-23T11:36:17.058Z,4.30
2018-12-23T11:41:20.153Z,3.93
2018-12-23T11:46:23.271Z,4.23
2018-12-23T11:51:26.381Z,4.37
2018-12-23T11:56:29.474Z,3.80
2018-12-23T12:01:32.564Z,3.40
2018-12-23T12:06:35.661Z,3.33
2018-12-23T12:11:38.756Z,3.70
2018-12-23T12:16:41.913Z,3.80
2018-12-23T12:21:45.093Z,3.63
2018-12-23T12:26:48.176Z,3.67
2018-12-23T12:31:51.286Z,3.60
2018-12-23T12:36:54.462Z,3.23
2018-12-23T12:41:57.569Z,3.33
2018-12-23T12:47:00.662Z,3.33
2018-12-23T12:52:03.886Z,3.40
2018-12-23T12:57:06.950Z,3.53
2018-12-23T13:02:10.029Z,3.90
2018-12-23T13:07:13.125Z,3.70
2018-12-23T13:12:16.186Z,4.03
2018-12-23T13:17:19.339Z,3.90
2018-12-23T13:22:22.448Z,3.87
2018-12-23T13:27:25.539Z,3.97
2018-12-23T13:32:28.639Z,3.63
2018-12-23T13:37:31.719Z,4.33
2018-12-23T13:43:16.276Z,4.23
2018-12-23T13:48:34.544Z,4.60
2018-12-23T14:01:04.433Z,5.33
2018-12-23T14:06:37.944Z,5.60
2018-12-23T14:11:57.533Z,4.80
2018-12-23T14:17:02.059Z,4.50
2018-12-23T14:22:06.549Z,5.17
2018-12-23T14:27:11.014Z,4.83
2018-12-23T14:32:15.317Z,4.97
2018-12-23T14:37:19.789Z,4.50
2018-12-23T14:42:23.962Z,4.80
2018-12-23T14:47:28.425Z,5.27
2018-12-23T14:52:32.577Z,5.30
2018-12-23T14:57:37.019Z,5.83
2018-12-23T15:02:41.222Z,5.70
2018-12-23T15:07:46.531Z,4.93
2018-12-23T15:12:50.723Z,5.50
2018-12-23T15:17:55.165Z,5.20
2018-12-23T15:22:59.649Z,5.10
2018-12-23T15:28:03.841Z,6.07
2018-12-23T15:33:08.289Z,5.63
2018-12-23T15:38:12.938Z,6.40
2018-12-23T15:43:17.374Z,5.30
2018-12-23T15:48:21.866Z,6.00
2018-12-23T15:53:26.348Z,5.73
2018-12-23T15:58:31.204Z,5.23
2018-12-23T16:03:35.407Z,5.90
2018-12-23T16:08:39.942Z,5.53
2018-12-23T16:13:44.691Z,5.73
2018-12-23T16:18:48.891Z,5.50
2018-12-23T16:23:53.322Z,5.87
2018-12-23T16:28:57.820Z,6.57
2018-12-23T16:34:02.019Z,5.97
2018-12-23T16:39:07.908Z,6.90
2018-12-23T16:44:12.427Z,7.57
2018-12-23T16:49:16.900Z,7.50
2018-12-23T16:54:21.101Z,7.37
2018-12-23T16:59:25.509Z,8.23
2018-12-23T17:04:29.956Z,11.00
2018-12-23T17:09:34.270Z,8.83
2018-12-23T17:14:38.433Z,9.30
2018-12-23T17:19:42.585Z,8.27
2018-12-23T17:24:46.829Z,6.77
2018-12-23T17:29:51.278Z,8.67
2018-12-23T17:34:55.769Z,7.77
2018-12-23T17:40:00.258Z,8.37
2018-12-23T17:45:04.980Z,8.70
2018-12-23T17:50:09.729Z,9.07
2018-12-23T17:55:14.166Z,9.13
2018-12-23T18:00:18.330Z,9.60
2018-12-23T18:05:22.811Z,10.70
2018-12-23T18:10:27.264Z,16.40
2018-12-23T18:15:31.736Z,12.33
2018-12-23T18:20:36.225Z,15.60
2018-12-23T18:25:40.385Z,14.90
2018-12-23T18:30:44.626Z,15.20
2018-12-23T18:35:49.385Z,16.03
2018-12-23T18:40:54.133Z,16.47
2018-12-23T18:45:58.651Z,17.17
2018-12-23T18:51:03.991Z,15.40
2018-12-23T18:56:08.508Z,13.07
2018-12-23T19:01:13.331Z,12.57
2018-12-23T19:06:17.900Z,13.37
2018-12-23T19:11:46.643Z,14.68
2018-12-23T19:17:07.601Z,13.83
2018-12-23T19:22:19.745Z,11.23
2018-12-23T19:27:37.523Z,10.40
2018-12-23T19:32:57.149Z,9.43
2018-12-23T19:38:11.816Z,9.20
2018-12-23T19:43:48.157Z,11.20
2018-12-23T19:49:33.730Z,11.27
2018-12-23T19:55:15.600Z,12.03
2018-12-23T20:00:45.701Z,12.87
2018-12-23T20:06:01.784Z,12.67
2018-12-23T20:11:31.957Z,14.50
2018-12-23T20:16:54.361Z,15.63
2018-12-23T20:22:47.124Z,13.90
2018-12-23T20:28:23.462Z,14.10
2018-12-23T20:33:53.090Z,14.30
2018-12-23T20:39:33.958Z,14.53
2018-12-23T20:44:59.509Z,14.80
2018-12-23T20:50:24.013Z,12.63
2018-12-23T20:55:47.986Z,11.70
2018-12-23T21:01:17.308Z,11.00
2018-12-23T21:06:37.505Z,8.07
2018-12-23T21:12:15.903Z,6.70
2018-12-23T21:17:53.980Z,5.47
2018-12-23T21:23:30.524Z,5.27
2018-12-23T21:29:16.072Z,4.67
2018-12-23T21:35:17.012Z,4.10
2018-12-23T21:40:46.871Z,3.23
2018-12-23T21:46:08.357Z,3.50
2018-12-23T21:51:55.773Z,2.53
2018-12-23T21:57:09.133Z,2.10
2018-12-23T22:02:52.865Z,2.52
2018-12-23T22:08:33.963Z,3.53
2018-12-23T22:13:38.650Z,3.83
2018-12-23T22:18:42.842Z,4.90
2018-12-23T22:23:47.221Z,5.23
2018-12-23T22:28:51.377Z,2.87
2018-12-23T22:33:55.784Z,2.00
2018-12-23T22:39:00.259Z,2.10
2018-12-23T22:44:04.737Z,1.60
2018-12-23T22:49:09.202Z,1.47
2018-12-23T22:54:13.394Z,1.50
2018-12-23T22:59:18.082Z,1.40
2018-12-23T23:04:22.258Z,1.70
2018-12-23T23:09:26.395Z,1.70
2018-12-23T23:14:31.078Z,1.87
2018-12-23T23:19:35.489Z,1.70
2018-12-23T23:24:39.895Z,1.70
2018-12-23T23:29:44.355Z,2.10
2018-12-23T23:34:49.248Z,2.40
2018-12-23T23:39:54.001Z,2.40
2018-12-23T23:44:58.523Z,2.60
2018-12-23T23:50:02.906Z,2.60
2018-12-23T23:55:07.307Z,2.77
